首页
METAR-TAF:

METAR-TAF

机场 :

西安咸阳国际机场

西安, 中华人民共和国

纬度: 34-26N, 经度: 108-45E, 海拔: 479米

当前天气观测

该预报发布于31分钟前的15:00 UTC
风速4节,风向西,在西转西南西转西北之间变化
温度 25°C
湿度 83%
气压 1013 hPa
能見度: 8000
散云层高于6000英尺

METAR: ZLXY 161500Z 27002MPS 240V300 8000 SCT060 25/22 Q1013 NOSIG

时间: 23:31 (15:31 UTC)

预报

该预报发布于6小时和22分钟前的09:09 UTC
预报有效从16日的 12点(UTC)到 17日的 12点(UTC)
风速8节,风向西
能見度: 6000
成为
从 16日的 15点(UTC)到 16日的 16点(UTC)
风速10节,风向东转东北
短暂存在
从 17日的 00点(UTC)到 17日的 06点(UTC)
少量云层高于4000英尺, 积雨云.
阵雨

TAF: ZLXY 160909Z 1612/1712 27004MPS 6000 NSC TX33/1707Z TN24/1621Z BECMG 1615/1616 06005MPS TEMPO 1700/1706 SHRA FEW040CB

超过4000个机场的气象观测和天气预报(METAR&TAF报告)。

可查询的气象台以黄色和红色小点在地图上表示。

将鼠标移到小点上方,可查看气象台名称。

然后点击查看天气观测和预报。

如需切换地图:点击带黑十字的绿色按钮放大地图;点击带横线的绿色按钮缩小地图;或者点击绿色箭头查看邻近地区的地图。


METAR-TAF: